Time;durP1;ratioP1;P1;durP2;ratioP2;P2;SDS_P1;SDS_P2;PMS_P1;PMS_P2;Temp;Humidity;BMP_temperature;BMP_pressure;BME280_temperature;BME280_humidity;BME280_pressure;Samples;Min_cycle;Max_cycle;Signal;HPM_P1;HPM_P2
2021/03/20 00:02:24;;;;;;;12.27;10.15;;;-0.80;77.00;;;;;;5127344;28;20479;-68
2021/03/20 00:04:56;;;;;;;11.32;9.95;;;-0.90;77.30;;;;;;5129641;28;20494;-68
2021/03/20 00:07:27;;;;;;;12.85;10.40;;;-1.00;77.30;;;;;;5122668;28;20058;-68
2021/03/20 00:09:59;;;;;;;12.35;10.18;;;-0.90;77.70;;;;;;5124126;28;20047;-68
2021/03/20 00:12:31;;;;;;;13.32;10.25;;;-1.00;77.50;;;;;;5123148;28;20428;-67
2021/03/20 00:15:05;;;;;;;10.65;9.55;;;-0.90;77.20;;;;;;5124860;28;20054;-67
2021/03/20 00:17:37;;;;;;;10.80;8.98;;;-0.90;77.00;;;;;;5125105;28;20047;-68
2021/03/20 00:20:11;;;;;;;11.00;9.45;;;-0.80;76.40;;;;;;5123655;28;20078;-68
2021/03/20 00:22:43;;;;;;;10.55;9.25;;;-0.80;75.90;;;;;;5123405;28;20046;-67
2021/03/20 00:25:15;;;;;;;11.35;9.43;;;-0.80;76.10;;;;;;5122427;28;20038;-68
2021/03/20 00:27:47;;;;;;;12.57;9.63;;;-0.80;75.80;;;;;;5122601;28;20043;-67
2021/03/20 00:30:19;;;;;;;11.75;9.73;;;-0.90;75.20;;;;;;5120978;28;20046;-69
2021/03/20 00:32:51;;;;;;;12.10;9.60;;;-0.80;75.30;;;;;;5124916;28;20043;-67
2021/03/20 00:35:26;;;;;;;12.27;10.55;;;-0.90;75.40;;;;;;5121382;28;20759;-69
2021/03/20 00:38:02;;;;;;;11.57;10.00;;;-1.00;76.10;;;;;;5122493;28;20055;-68
2021/03/20 00:40:33;;;;;;;11.52;9.80;;;-1.00;75.70;;;;;;5121430;28;20051;-69
2021/03/20 00:43:05;;;;;;;12.90;10.13;;;-1.10;76.20;;;;;;5126132;28;20137;-68
2021/03/20 00:45:36;;;;;;;12.60;10.00;;;-1.10;76.30;;;;;;5125478;28;20492;-68
2021/03/20 00:48:12;;;;;;;11.23;9.90;;;-1.10;75.90;;;;;;5124661;28;20055;-68
2021/03/20 00:50:44;;;;;;;12.15;10.10;;;-1.00;75.70;;;;;;5122764;28;20078;-68
2021/03/20 00:53:22;;;;;;;12.23;10.23;;;-1.00;76.20;;;;;;5125452;28;20173;-67
2021/03/20 00:55:54;;;;;;;13.38;10.27;;;-1.10;76.20;;;;;;5122583;28;20159;-68
2021/03/20 00:58:38;;;;;;;12.07;10.57;;;-1.10;76.20;;;;;;5123369;28;20046;-68
2021/03/20 01:01:13;;;;;;;12.00;9.57;;;-1.00;75.80;;;;;;5125970;28;20129;-68
2021/03/20 01:03:45;;;;;;;14.00;10.35;;;-1.00;76.00;;;;;;5123706;28;20047;-67
2021/03/20 01:06:23;;;;;;;12.23;10.80;;;-1.00;75.40;;;;;;5123527;28;20082;-67
2021/03/20 01:08:56;;;;;;;13.60;10.82;;;-1.00;75.50;;;;;;5119083;28;20055;-67
2021/03/20 01:11:29;;;;;;;12.48;9.98;;;-1.00;76.20;;;;;;5127654;28;20978;-68
2021/03/20 01:14:01;;;;;;;14.55;10.60;;;-1.00;75.80;;;;;;5122083;28;20047;-67
2021/03/20 01:16:34;;;;;;;11.60;10.25;;;-1.10;76.30;;;;;;5125249;28;20047;-67
2021/03/20 01:19:06;;;;;;;13.23;10.48;;;-1.10;76.10;;;;;;5124621;28;20191;-67
2021/03/20 01:21:37;;;;;;;13.52;10.98;;;-1.00;76.50;;;;;;5122947;28;20124;-68
2021/03/20 01:24:10;;;;;;;12.73;10.85;;;-1.10;76.30;;;;;;5122832;28;20154;-67
2021/03/20 01:26:41;;;;;;;13.00;10.43;;;-1.10;76.30;;;;;;5123087;28;20551;-67
2021/03/20 01:29:13;;;;;;;13.25;10.85;;;-1.00;76.10;;;;;;5122903;28;20545;-68
2021/03/20 01:31:45;;;;;;;14.52;10.23;;;-1.00;75.80;;;;;;5122905;28;20135;-68
2021/03/20 01:34:16;;;;;;;12.63;10.90;;;-1.10;75.80;;;;;;5122750;28;20046;-67
2021/03/20 01:36:48;;;;;;;12.27;10.40;;;-1.10;76.10;;;;;;5122354;28;20078;-67
2021/03/20 01:39:19;;;;;;;11.75;10.23;;;-1.10;75.80;;;;;;5128732;28;20087;-67
2021/03/20 01:41:50;;;;;;;14.35;11.32;;;-1.10;76.00;;;;;;5125388;28;20122;-68
2021/03/20 01:44:24;;;;;;;15.25;10.68;;;-1.10;76.00;;;;;;5128025;28;20113;-68
2021/03/20 01:46:56;;;;;;;12.95;10.45;;;-1.10;75.70;;;;;;5126758;28;20170;-67
2021/03/20 01:49:35;;;;;;;12.93;10.82;;;-1.10;76.80;;;;;;5129047;28;20144;-67
2021/03/20 01:52:12;;;;;;;12.98;10.60;;;-1.20;76.60;;;;;;5127579;28;20662;-68
2021/03/20 01:54:59;;;;;;;13.45;11.40;;;-1.10;76.70;;;;;;5125933;28;20099;-67
2021/03/20 01:57:38;;;;;;;12.98;10.85;;;-1.10;76.90;;;;;;5128960;28;20055;-67
2021/03/20 02:00:16;;;;;;;13.00;11.55;;;-1.10;76.50;;;;;;5128551;28;20114;-68
2021/03/20 02:02:47;;;;;;;14.02;11.07;;;-1.20;76.80;;;;;;5126059;28;20070;-67
2021/03/20 02:05:26;;;;;;;14.93;11.93;;;-1.20;76.60;;;;;;5127432;28;20043;-67
2021/03/20 02:08:00;;;;;;;12.68;10.60;;;-1.20;76.30;;;;;;5127735;28;20038;-67
2021/03/20 02:10:35;;;;;;;14.05;11.13;;;-1.20;76.80;;;;;;5126445;28;20047;-67
2021/03/20 02:13:13;;;;;;;15.15;11.88;;;-1.30;76.70;;;;;;5126684;28;20039;-67
2021/03/20 02:15:49;;;;;;;13.95;11.20;;;-1.30;76.60;;;;;;5126141;28;20135;-67
2021/03/20 02:18:27;;;;;;;14.57;11.80;;;-1.30;76.50;;;;;;5128596;28;20481;-67
2021/03/20 02:21:13;;;;;;;13.50;11.50;;;-1.30;76.50;;;;;;5124436;28;20078;-67
2021/03/20 02:24:22;;;;;;;14.38;12.10;;;-1.30;76.30;;;;;;5124992;28;20109;-67
2021/03/20 02:27:15;;;;;;;13.93;11.10;;;-1.30;76.50;;;;;;5124994;28;20594;-68
2021/03/20 02:30:04;;;;;;;15.07;11.73;;;-1.40;76.30;;;;;;5127997;28;20149;-67
2021/03/20 02:33:03;;;;;;;15.85;11.95;;;-1.50;76.60;;;;;;5129979;28;20133;-67
2021/03/20 02:36:08;;;;;;;15.25;11.95;;;-1.60;76.40;;;;;;5125684;28;20517;-67
2021/03/20 02:38:53;;;;;;;14.18;11.82;;;-1.60;76.20;;;;;;5126093;28;20039;-67
2021/03/20 02:41:47;;;;;;;13.45;11.57;;;-1.60;76.20;;;;;;5128190;28;20091;-67
2021/03/20 02:44:24;;;;;;;14.90;11.65;;;-1.70;76.80;;;;;;5124580;28;20043;-67
2021/03/20 02:47:02;;;;;;;15.50;12.38;;;-1.60;76.40;;;;;;5128790;28;20146;-67
2021/03/20 02:49:44;;;;;;;13.32;11.10;;;-1.60;76.30;;;;;;5125306;28;20043;-67
2021/03/20 02:52:28;;;;;;;14.90;11.07;;;-1.60;75.50;;;;;;5141346;28;20142;-67
2021/03/20 02:55:08;;;;;;;12.85;11.35;;;-1.60;75.20;;;;;;5124057;28;20500;-67
2021/03/20 02:57:40;;;;;;;15.25;11.93;;;-1.50;74.80;;;;;;5122417;28;20063;-66
2021/03/20 03:00:34;;;;;;;14.82;11.82;;;-1.50;74.80;;;;;;5125352;28;20125;-66
2021/03/20 03:03:08;;;;;;;15.18;12.02;;;-1.50;74.80;;;;;;5123861;28;20162;-66
2021/03/20 03:05:45;;;;;;;14.13;11.77;;;-1.60;74.70;;;;;;5126206;28;20047;-66
2021/03/20 03:08:29;;;;;;;13.05;10.68;;;-1.60;74.80;;;;;;5125643;28;20093;-66
2021/03/20 03:11:05;;;;;;;14.88;12.27;;;-1.60;74.30;;;;;;5122306;28;20133;-67
2021/03/20 03:13:49;;;;;;;15.20;12.50;;;-1.60;74.70;;;;;;5114096;28;20047;-66
2021/03/20 03:16:32;;;;;;;15.07;12.32;;;-1.60;74.00;;;;;;5125301;28;20117;-67
2021/03/20 03:19:10;;;;;;;13.50;11.55;;;-1.60;74.60;;;;;;5124440;28;20054;-66
2021/03/20 03:21:46;;;;;;;13.35;11.15;;;-1.60;75.70;;;;;;5136272;28;20058;-66
2021/03/20 03:24:22;;;;;;;13.00;11.55;;;-1.70;75.30;;;;;;5122015;28;20514;-67
2021/03/20 03:27:06;;;;;;;14.90;12.15;;;-1.70;75.30;;;;;;5120359;28;20058;-67
2021/03/20 03:29:37;;;;;;;14.02;12.00;;;-1.60;75.20;;;;;;5123647;28;20047;-66
2021/03/20 03:32:34;;;;;;;14.38;11.85;;;-1.60;74.80;;;;;;5125276;28;20079;-67
2021/03/20 03:35:18;;;;;;;14.18;11.68;;;-1.60;74.70;;;;;;5121799;28;20051;-67
2021/03/20 03:38:30;;;;;;;15.55;12.43;;;-1.50;74.60;;;;;;5125352;28;20457;-66
2021/03/20 03:41:21;;;;;;;15.00;12.60;;;-1.50;74.50;;;;;;5124418;28;20065;-67
2021/03/20 03:43:53;;;;;;;13.93;10.95;;;-1.60;73.70;;;;;;5126893;28;20118;-68
2021/03/20 03:46:29;;;;;;;14.05;11.20;;;-1.70;73.60;;;;;;5123306;28;20051;-67
2021/03/20 03:49:05;;;;;;;14.23;11.25;;;-1.60;73.80;;;;;;5124336;28;20556;-67
2021/03/20 03:51:37;;;;;;;15.15;11.48;;;-1.60;72.90;;;;;;5125817;28;20058;-67
2021/03/20 03:54:09;;;;;;;14.75;11.85;;;-1.70;73.40;;;;;;5126627;28;20115;-68
2021/03/20 03:56:46;;;;;;;16.38;12.10;;;-1.70;73.40;;;;;;5124087;28;20504;-68
2021/03/20 03:59:22;;;;;;;14.68;11.27;;;-1.80;73.30;;;;;;5122527;28;20054;-68
2021/03/20 04:02:05;;;;;;;13.10;11.02;;;-1.80;73.60;;;;;;5123389;28;20106;-67
2021/03/20 04:04:48;;;;;;;13.65;11.32;;;-1.90;73.70;;;;;;5120821;28;20054;-67
2021/03/20 04:07:34;;;;;;;15.02;11.05;;;-1.80;73.40;;;;;;5123863;28;20110;-67
2021/03/20 04:10:31;;;;;;;13.15;11.15;;;-1.70;73.10;;;;;;5123584;28;20110;-68
2021/03/20 04:13:14;;;;;;;12.73;10.77;;;-1.70;73.40;;;;;;5119881;28;20050;-68
2021/03/20 04:16:07;;;;;;;15.65;11.68;;;-1.70;73.10;;;;;;5121036;28;20047;-68
2021/03/20 04:19:00;;;;;;;15.45;11.63;;;-1.70;73.30;;;;;;5124218;28;20050;-68
2021/03/20 04:21:54;;;;;;;14.38;11.50;;;-1.80;73.30;;;;;;5122618;28;20059;-67
2021/03/20 04:24:36;;;;;;;15.63;12.15;;;-1.70;73.30;;;;;;5121639;28;20047;-67
2021/03/20 04:27:33;;;;;;;15.27;11.75;;;-1.70;73.50;;;;;;5121740;28;20039;-68
2021/03/20 04:30:17;;;;;;;17.02;13.00;;;-1.70;73.20;;;;;;5119514;28;20589;-67
2021/03/20 04:33:09;;;;;;;15.63;12.02;;;-1.70;72.90;;;;;;5124273;28;20055;-67
2021/03/20 04:35:54;;;;;;;17.75;12.88;;;-1.80;72.60;;;;;;5123969;28;20043;-67
2021/03/20 04:38:27;;;;;;;16.38;12.57;;;-1.80;72.90;;;;;;5125682;28;20043;-68
2021/03/20 04:41:03;;;;;;;16.45;12.70;;;-1.90;73.50;;;;;;5125856;28;20411;-67
2021/03/20 04:43:37;;;;;;;16.05;12.32;;;-1.90;73.20;;;;;;5124670;28;20214;-68
2021/03/20 04:46:16;;;;;;;17.67;12.90;;;-1.90;73.30;;;;;;5122107;28;20062;-69
2021/03/20 04:49:01;;;;;;;16.08;11.95;;;-2.00;73.50;;;;;;5121292;28;20421;-68
2021/03/20 04:51:50;;;;;;;16.48;13.18;;;-2.00;73.00;;;;;;5123585;28;20043;-67
2021/03/20 04:54:25;;;;;;;16.75;12.85;;;-2.10;74.60;;;;;;5117627;28;20102;-67
2021/03/20 04:57:10;;;;;;;18.80;13.13;;;-2.20;73.80;;;;;;5124669;28;20746;-67
2021/03/20 05:00:01;;;;;;;16.30;12.48;;;-2.30;74.30;;;;;;5127014;28;20047;-66
2021/03/20 05:02:53;;;;;;;16.60;12.48;;;-2.30;74.20;;;;;;5124439;28;20051;-67
2021/03/20 05:05:32;;;;;;;18.95;13.77;;;-2.30;74.00;;;;;;5139910;28;21677;-66
2021/03/20 05:08:11;;;;;;;18.17;13.07;;;-2.30;73.70;;;;;;5125212;28;20101;-66
2021/03/20 05:11:09;;;;;;;16.80;13.30;;;-2.30;73.70;;;;;;5136931;28;20039;-68
2021/03/20 05:14:02;;;;;;;17.02;12.63;;;-2.30;74.10;;;;;;5128549;28;20421;-67
2021/03/20 05:16:54;;;;;;;16.67;13.20;;;-2.30;74.30;;;;;;5128869;28;20066;-67
2021/03/20 05:19:28;;;;;;;16.42;12.93;;;-2.30;74.10;;;;;;5128966;28;20476;-67
2021/03/20 05:21:59;;;;;;;14.75;11.98;;;-2.30;73.80;;;;;;5128660;28;20521;-67
2021/03/20 05:24:37;;;;;;;17.05;13.27;;;-2.40;74.00;;;;;;5115030;28;20055;-67
2021/03/20 05:27:16;;;;;;;16.10;12.90;;;-2.40;74.20;;;;;;5125867;28;20517;-68
2021/03/20 05:29:48;;;;;;;16.03;13.37;;;-2.40;73.80;;;;;;5126946;28;20478;-66
2021/03/20 05:32:31;;;;;;;16.70;13.13;;;-2.40;73.90;;;;;;5122822;28;20075;-67
2021/03/20 05:35:08;;;;;;;16.42;12.27;;;-2.40;73.70;;;;;;5128514;28;20059;-68
2021/03/20 05:37:41;;;;;;;17.35;12.40;;;-2.50;73.40;;;;;;5127770;28;20113;-68
2021/03/20 05:40:26;;;;;;;15.95;12.90;;;-2.50;72.80;;;;;;5127285;28;20063;-68
2021/03/20 05:43:24;;;;;;;15.20;12.30;;;-2.50;72.70;;;;;;5128017;28;20047;-67
2021/03/20 05:46:14;;;;;;;14.57;11.82;;;-2.50;72.40;;;;;;5127092;28;20047;-67
2021/03/20 05:48:53;;;;;;;14.25;11.60;;;-2.40;71.80;;;;;;5123642;28;20046;-67
2021/03/20 05:52:02;;;;;;;15.85;12.63;;;-2.50;71.40;;;;;;5128452;28;20098;-68
2021/03/20 05:54:52;;;;;;;17.25;11.88;;;-2.60;71.50;;;;;;5125552;28;20454;-67
2021/03/20 05:57:47;;;;;;;15.98;11.93;;;-2.60;72.60;;;;;;5127066;28;20046;-67
2021/03/20 06:00:21;;;;;;;17.88;12.73;;;-2.50;72.10;;;;;;5126044;28;20051;-67
2021/03/20 06:03:19;;;;;;;15.88;12.25;;;-2.50;72.20;;;;;;5128625;28;20053;-68
2021/03/20 06:05:54;;;;;;;17.00;12.32;;;-2.40;72.30;;;;;;5125334;28;20066;-66
2021/03/20 06:08:31;;;;;;;17.42;12.43;;;-2.20;72.30;;;;;;5126352;28;20129;-67
2021/03/20 06:11:16;;;;;;;16.05;12.60;;;-2.10;72.00;;;;;;5127517;28;20043;-66
2021/03/20 06:13:59;;;;;;;15.48;11.75;;;-1.80;71.80;;;;;;5127267;28;20037;-68
2021/03/20 06:16:33;;;;;;;14.60;12.25;;;-1.60;70.80;;;;;;5126716;28;20118;-67
2021/03/20 06:19:32;;;;;;;15.65;12.50;;;-1.60;71.10;;;;;;5127727;28;20497;-68
2021/03/20 06:22:42;;;;;;;16.40;12.32;;;-1.30;70.80;;;;;;5128434;28;20221;-67
2021/03/20 06:25:27;;;;;;;16.63;12.13;;;-1.10;70.20;;;;;;5105253;28;20059;-67
2021/03/20 06:27:59;;;;;;;15.68;12.60;;;-1.00;69.10;;;;;;5128415;28;20046;-67
2021/03/20 06:30:54;;;;;;;16.83;13.25;;;-0.80;69.60;;;;;;5126503;28;20433;-67
2021/03/20 06:33:33;;;;;;;16.00;12.82;;;-0.70;69.00;;;;;;5124252;28;20039;-67
2021/03/20 06:36:10;;;;;;;15.50;13.02;;;-0.50;68.90;;;;;;5123280;28;20076;-68
2021/03/20 06:38:56;;;;;;;15.65;12.30;;;-0.40;68.00;;;;;;5128331;28;20157;-67
2021/03/20 06:41:39;;;;;;;15.82;12.40;;;-0.30;68.30;;;;;;5125681;28;20482;-68
2021/03/20 06:44:27;;;;;;;15.63;11.90;;;-0.10;67.40;;;;;;5125995;28;20050;-68
2021/03/20 06:46:59;;;;;;;15.60;12.65;;;-0.10;67.00;;;;;;5125089;28;20105;-69
2021/03/20 06:49:39;;;;;;;15.73;12.52;;;0.00;66.90;;;;;;5124392;28;20120;-67
2021/03/20 06:52:18;;;;;;;14.63;12.85;;;0.00;66.80;;;;;;5126247;28;20126;-68
2021/03/20 06:55:14;;;;;;;14.73;12.82;;;0.00;67.10;;;;;;5122234;28;20120;-68
2021/03/20 06:57:48;;;;;;;15.00;12.40;;;0.00;66.60;;;;;;5124960;28;20063;-68
2021/03/20 07:00:22;;;;;;;15.48;13.25;;;0.00;66.30;;;;;;5122904;28;20701;-67
2021/03/20 07:03:03;;;;;;;14.55;12.35;;;0.10;66.20;;;;;;5124843;28;20050;-67
2021/03/20 07:06:11;;;;;;;15.15;12.38;;;0.20;65.70;;;;;;5130571;28;20051;-68
2021/03/20 07:08:56;;;;;;;14.25;11.77;;;0.20;65.70;;;;;;5118700;28;20079;-66
2021/03/20 07:11:55;;;;;;;15.70;12.65;;;0.20;64.90;;;;;;5124455;28;20109;-67
2021/03/20 07:14:52;;;;;;;14.45;12.02;;;0.20;64.90;;;;;;5126134;28;20062;-67
2021/03/20 07:17:26;;;;;;;16.00;12.25;;;0.30;65.20;;;;;;5122659;28;20402;-67
2021/03/20 07:20:07;;;;;;;15.85;12.45;;;0.30;64.90;;;;;;5123520;28;20098;-67
2021/03/20 07:22:46;;;;;;;;;;;0.40;65.20;;;;;;5124254;28;20074;-68
2021/03/20 07:25:47;;;;;;;14.50;11.75;;;0.40;64.70;;;;;;5125785;28;20483;-67
2021/03/20 07:28:22;;;;;;;14.63;12.25;;;0.40;63.60;;;;;;5125749;28;20047;-66
2021/03/20 07:31:09;;;;;;;14.18;11.90;;;0.40;64.10;;;;;;5122657;28;20051;-68
2021/03/20 07:33:47;;;;;;;15.80;12.73;;;0.50;64.50;;;;;;5124218;28;20038;-67
2021/03/20 07:36:37;;;;;;;14.70;11.93;;;0.50;64.50;;;;;;5116300;28;20080;-68
2021/03/20 07:39:21;;;;;;;16.05;12.75;;;0.70;64.80;;;;;;5129740;28;20047;-67
2021/03/20 07:42:03;;;;;;;14.60;11.85;;;0.80;64.20;;;;;;5123555;28;20138;-68
2021/03/20 07:45:16;;;;;;;14.50;11.83;;;0.90;64.00;;;;;;5124235;28;20883;-68
2021/03/20 07:47:54;;;;;;;15.45;12.45;;;1.10;63.50;;;;;;5126050;28;20290;-68
2021/03/20 07:50:31;;;;;;;15.35;13.15;;;1.10;63.30;;;;;;5128915;28;20038;-67
2021/03/20 07:53:08;;;;;;;17.30;13.85;;;1.00;63.30;;;;;;5125070;28;20047;-68
2021/03/20 07:55:54;;;;;;;15.25;13.25;;;0.90;64.00;;;;;;5122380;28;20047;-67
2021/03/20 07:58:34;;;;;;;15.27;12.80;;;0.70;64.30;;;;;;5127577;28;20153;-68
2021/03/20 08:01:11;;;;;;;14.23;11.88;;;0.60;64.20;;;;;;5122400;28;20047;-68
2021/03/20 08:03:58;;;;;;;14.57;11.68;;;0.50;64.20;;;;;;5123736;28;20051;-67
2021/03/20 08:06:38;;;;;;;13.38;11.60;;;0.60;64.10;;;;;;5126168;28;20501;-69
2021/03/20 08:09:13;;;;;;;12.93;11.32;;;0.80;64.10;;;;;;5126557;28;20035;-67
2021/03/20 08:11:47;;;;;;;13.30;11.90;;;1.00;64.60;;;;;;5127676;28;20046;-68
2021/03/20 08:14:38;;;;;;;14.30;12.27;;;1.20;63.40;;;;;;5127201;28;20050;-68
2021/03/20 08:17:15;;;;;;;13.85;11.98;;;1.40;62.90;;;;;;5125070;28;20086;-67
2021/03/20 08:19:48;;;;;;;13.18;11.77;;;1.40;62.40;;;;;;5125700;28;20479;-67
2021/03/20 08:22:58;;;;;;;11.73;10.52;;;1.30;62.20;;;;;;5123772;28;20122;-68
2021/03/20 08:25:56;;;;;;;11.50;9.25;;;1.20;61.50;;;;;;5104101;28;20138;-66
2021/03/20 08:28:59;;;;;;;10.77;9.60;;;1.10;61.00;;;;;;5122602;28;20088;-67
2021/03/20 08:32:17;;;;;;;9.68;8.68;;;1.10;60.80;;;;;;5111486;28;20043;-67
2021/03/20 08:35:02;;;;;;;9.95;8.95;;;1.20;60.60;;;;;;5051186;29;20540;-67
2021/03/20 08:37:43;;;;;;;11.23;9.02;;;1.30;59.80;;;;;;5131641;28;20047;-67
2021/03/20 08:40:18;;;;;;;10.07;9.07;;;1.40;57.90;;;;;;5119546;28;20031;-67
2021/03/20 08:43:29;;;;;;;10.30;9.25;;;1.70;57.70;;;;;;5123011;28;20514;-67
2021/03/20 08:46:21;;;;;;;9.95;8.95;;;2.10;57.90;;;;;;5124604;28;20050;-67
2021/03/20 08:49:14;;;;;;;10.25;8.70;;;2.20;56.00;;;;;;5128928;28;20035;-67
2021/03/20 08:51:54;;;;;;;9.88;8.77;;;2.30;55.70;;;;;;5127282;28;20101;-67
2021/03/20 08:54:37;;;;;;;10.30;9.30;;;2.60;55.00;;;;;;5131449;28;20059;-67
2021/03/20 08:57:27;;;;;;;10.13;9.07;;;2.90;52.90;;;;;;5124725;28;20039;-68
2021/03/20 09:00:03;;;;;;;9.68;8.68;;;3.30;51.70;;;;;;5127442;28;20524;-68
2021/03/20 09:02:38;;;;;;;10.20;9.20;;;3.40;52.70;;;;;;5126648;28;20071;-68
2021/03/20 09:05:17;;;;;;;9.63;8.73;;;3.50;51.30;;;;;;5129484;28;20043;-68
2021/03/20 09:07:53;;;;;;;9.32;8.35;;;3.40;51.60;;;;;;5127904;28;20066;-69
2021/03/20 09:10:47;;;;;;;10.35;8.85;;;3.40;51.00;;;;;;5127283;28;20034;-68
2021/03/20 09:13:43;;;;;;;10.40;9.30;;;3.50;51.00;;;;;;5127925;28;20183;-68
2021/03/20 09:16:45;;;;;;;10.05;8.95;;;3.70;51.40;;;;;;5128629;28;20097;-68
2021/03/20 09:19:39;;;;;;;9.68;8.70;;;3.70;50.10;;;;;;5129138;28;20506;-68
2021/03/20 09:22:14;;;;;;;9.65;8.65;;;3.80;49.10;;;;;;5125745;28;20521;-68
2021/03/20 09:24:55;;;;;;;10.00;9.00;;;3.60;48.20;;;;;;5123646;28;20070;-67
2021/03/20 09:28:05;;;;;;;11.18;10.07;;;3.80;49.70;;;;;;5122988;28;20112;-69
2021/03/20 09:30:56;;;;;;;10.25;9.18;;;3.90;48.80;;;;;;5126970;28;20106;-67
2021/03/20 09:33:36;;;;;;;10.63;9.63;;;4.00;49.40;;;;;;5129381;28;20055;-68
2021/03/20 09:36:27;;;;;;;11.00;9.90;;;4.30;48.20;;;;;;5127166;28;20134;-68
2021/03/20 09:39:01;;;;;;;10.02;9.02;;;4.50;49.40;;;;;;5125834;28;20150;-68
2021/03/20 09:41:34;;;;;;;10.13;9.10;;;4.30;48.00;;;;;;5125930;28;20544;-68
2021/03/20 09:44:18;;;;;;;9.80;8.80;;;4.30;48.70;;;;;;5127286;28;20091;-68
2021/03/20 09:46:51;;;;;;;10.18;9.18;;;4.40;48.30;;;;;;5126409;28;20934;-67
2021/03/20 09:49:23;;;;;;;10.43;9.32;;;4.50;47.70;;;;;;5125323;28;20425;-67
2021/03/20 09:51:58;;;;;;;10.48;9.48;;;4.70;47.50;;;;;;5126033;28;20456;-69
2021/03/20 09:54:39;;;;;;;9.90;8.90;;;4.70;46.60;;;;;;5126236;28;20047;-69
2021/03/20 09:59:49;;;;;;;10.10;9.07;;;5.10;46.90;;;;;;5129775;28;20047;-67
2021/03/20 10:02:21;;;;;;;10.80;9.70;;;5.40;46.20;;;;;;5129189;28;20149;-69
2021/03/20 10:04:59;;;;;;;10.57;9.57;;;5.50;44.90;;;;;;5129510;28;20039;-68
2021/03/20 10:07:35;;;;;;;11.63;10.52;;;5.80;42.60;;;;;;5124628;28;20137;-68
2021/03/20 10:10:13;;;;;;;10.80;9.80;;;6.00;41.30;;;;;;5124539;28;20043;-68
2021/03/20 10:12:47;;;;;;;10.75;9.75;;;6.20;41.20;;;;;;5125593;28;20070;-68
2021/03/20 10:15:28;;;;;;;10.38;9.27;;;6.30;41.20;;;;;;5127111;28;20035;-67
2021/03/20 10:18:20;;;;;;;11.27;10.18;;;6.40;39.90;;;;;;5126167;28;20476;-67
2021/03/20 10:20:52;;;;;;;11.75;10.68;;;6.30;39.20;;;;;;5125445;28;20130;-67
2021/03/20 10:23:47;;;;;;;10.18;9.18;;;6.40;38.60;;;;;;5125517;28;20109;-68
2021/03/20 10:26:42;;;;;;;10.98;9.45;;;6.20;38.20;;;;;;5113156;28;20051;-67
2021/03/20 10:29:16;;;;;;;11.05;10.05;;;6.30;38.50;;;;;;5125959;28;20046;-67
2021/03/20 10:31:50;;;;;;;12.05;10.85;;;6.30;38.30;;;;;;5128241;28;20347;-67
2021/03/20 10:34:25;;;;;;;11.32;10.23;;;6.30;38.10;;;;;;5142581;28;20133;-68
2021/03/20 10:37:06;;;;;;;11.05;9.90;;;6.30;37.60;;;;;;5127127;28;20042;-67
2021/03/20 10:39:42;;;;;;;10.55;9.43;;;6.20;37.90;;;;;;5128527;28;20050;-68
2021/03/20 10:42:23;;;;;;;30.60;18.60;;;5.90;37.90;;;;;;5123098;28;20043;-68
2021/03/20 10:44:59;;;;;;;13.80;11.65;;;5.80;38.30;;;;;;5128582;28;20074;-69
2021/03/20 10:47:34;;;;;;;22.45;15.18;;;5.70;38.00;;;;;;5127698;28;20054;-67
2021/03/20 10:50:18;;;;;;;10.90;9.77;;;5.70;39.20;;;;;;5124209;28;20043;-68
2021/03/20 10:52:52;;;;;;;11.40;10.30;;;5.70;37.40;;;;;;5125213;28;20054;-68
2021/03/20 10:55:36;;;;;;;10.02;9.10;;;5.70;37.70;;;;;;5124356;28;20062;-68
2021/03/20 10:58:14;;;;;;;9.55;8.65;;;5.80;37.20;;;;;;5123647;28;20053;-68
2021/03/20 11:00:48;;;;;;;10.25;9.35;;;5.90;37.70;;;;;;5132289;28;20059;-68
2021/03/20 11:03:26;;;;;;;9.90;9.00;;;5.90;36.80;;;;;;5126155;28;20047;-70
2021/03/20 11:06:19;;;;;;;10.00;9.00;;;5.60;37.80;;;;;;5122567;28;20043;-70
2021/03/20 11:09:21;;;;;;;10.25;9.35;;;5.50;38.80;;;;;;5137096;28;20511;-69
2021/03/20 11:12:04;;;;;;;10.45;9.45;;;5.80;38.60;;;;;;5124330;28;20043;-69
2021/03/20 11:14:57;;;;;;;10.73;9.73;;;6.30;38.50;;;;;;5124383;28;20054;-69
2021/03/20 11:17:33;;;;;;;10.10;9.10;;;6.60;37.70;;;;;;5122683;28;20477;-68
2021/03/20 11:20:08;;;;;;;10.13;9.20;;;6.80;37.00;;;;;;5126651;28;20042;-70
2021/03/20 11:22:41;;;;;;;10.65;9.65;;;7.00;37.00;;;;;;5124481;28;20051;-68
2021/03/20 11:25:52;;;;;;;11.23;10.23;;;7.10;36.80;;;;;;5124697;28;20906;-69
2021/03/20 11:28:35;;;;;;;11.18;10.02;;;7.00;35.40;;;;;;5105769;28;20051;-69
2021/03/20 11:31:07;;;;;;;9.80;8.90;;;6.90;36.20;;;;;;5102571;29;20923;-70
2021/03/20 11:33:41;;;;;;;9.82;8.82;;;6.90;34.20;;;;;;5115498;28;20055;-71
2021/03/20 11:36:23;;;;;;;9.27;8.48;;;6.80;32.70;;;;;;5121764;28;20576;-70
2021/03/20 11:38:56;;;;;;;9.10;8.30;;;6.50;33.30;;;;;;5129187;28;20054;-70
2021/03/20 11:41:35;;;;;;;9.02;8.23;;;6.40;33.60;;;;;;5124098;28;20049;-69
2021/03/20 11:44:23;;;;;;;9.02;8.13;;;6.40;33.60;;;;;;5126680;28;20440;-69
2021/03/20 11:46:57;;;;;;;9.15;8.35;;;6.40;35.10;;;;;;5125848;28;20405;-68
2021/03/20 11:49:41;;;;;;;8.82;8.02;;;6.40;35.60;;;;;;5127296;28;20126;-68
2021/03/20 11:52:41;;;;;;;9.80;8.80;;;6.30;34.10;;;;;;5124614;28;20134;-68
2021/03/20 11:55:29;;;;;;;9.05;8.25;;;6.20;34.40;;;;;;5125054;28;20105;-69
2021/03/20 11:58:05;;;;;;;10.00;9.00;;;6.00;33.10;;;;;;5123162;28;20046;-67
2021/03/20 12:00:40;;;;;;;8.77;7.97;;;5.80;34.70;;;;;;5110375;28;20526;-68
2021/03/20 12:03:31;;;;;;;9.10;8.30;;;5.60;35.10;;;;;;5127634;28;20078;-67
2021/03/20 12:06:16;;;;;;;8.80;8.00;;;5.60;35.90;;;;;;5124362;28;20696;-68
2021/03/20 12:08:59;;;;;;;8.57;7.78;;;5.50;34.50;;;;;;5128677;28;20116;-69
2021/03/20 12:11:49;;;;;;;9.07;8.18;;;5.40;35.10;;;;;;5124757;28;20089;-69
2021/03/20 12:14:45;;;;;;;9.25;8.45;;;5.60;35.50;;;;;;5130147;28;20054;-70
2021/03/20 12:17:19;;;;;;;8.45;7.65;;;6.10;34.70;;;;;;5125998;28;20054;-68
2021/03/20 12:19:59;;;;;;;10.00;8.43;;;6.50;34.10;;;;;;5124255;28;20042;-68
2021/03/20 12:22:33;;;;;;;10.05;9.05;;;6.70;34.30;;;;;;5123730;28;20390;-67
2021/03/20 12:25:29;;;;;;;9.07;8.18;;;6.50;32.60;;;;;;5124521;28;20066;-68
2021/03/20 12:28:21;;;;;;;8.75;7.82;;;6.50;34.20;;;;;;5122847;28;20468;-67
2021/03/20 12:31:07;;;;;;;8.77;7.88;;;6.40;34.20;;;;;;5123482;28;20047;-67
2021/03/20 12:33:53;;;;;;;9.32;8.43;;;6.40;33.60;;;;;;5126622;28;20035;-68
2021/03/20 12:36:59;;;;;;;9.20;8.30;;;6.30;33.80;;;;;;5124671;28;20042;-67
2021/03/20 12:39:30;;;;;;;8.95;8.05;;;6.60;33.80;;;;;;5101703;28;20439;-67
2021/03/20 12:42:02;;;;;;;8.98;8.07;;;6.50;34.00;;;;;;5125425;28;20047;-66
2021/03/20 12:44:42;;;;;;;9.63;7.80;;;6.40;35.00;;;;;;5124423;28;20076;-67
2021/03/20 12:47:17;;;;;;;8.27;7.47;;;6.30;35.10;;;;;;5127199;28;20622;-68
2021/03/20 12:49:49;;;;;;;42.15;32.40;;;6.20;35.30;;;;;;5125777;28;20051;-67
2021/03/20 12:52:21;;;;;;;8.82;8.02;;;6.00;35.20;;;;;;5125412;28;20062;-69
2021/03/20 12:54:57;;;;;;;9.07;8.18;;;5.40;35.50;;;;;;5122935;28;20046;-67
2021/03/20 12:57:33;;;;;;;9.10;7.97;;;5.30;36.40;;;;;;5124397;28;20138;-67
2021/03/20 13:00:07;;;;;;;9.85;8.23;;;5.30;36.70;;;;;;5125491;28;20043;-68
2021/03/20 13:02:38;;;;;;;9.68;7.80;;;5.50;36.90;;;;;;5125017;28;20161;-69
2021/03/20 13:05:26;;;;;;;10.10;8.35;;;5.60;36.20;;;;;;5124889;28;20078;-68
2021/03/20 13:07:57;;;;;;;9.48;8.57;;;5.60;36.80;;;;;;5123088;28;20050;-67
2021/03/20 13:10:29;;;;;;;9.13;8.23;;;5.70;37.00;;;;;;5126321;28;20647;-68
2021/03/20 13:13:01;;;;;;;9.63;8.73;;;5.90;36.60;;;;;;5126571;28;20035;-69
2021/03/20 13:15:32;;;;;;;8.45;7.65;;;5.80;36.20;;;;;;5123445;28;20090;-66
2021/03/20 13:18:04;;;;;;;9.30;8.40;;;5.70;36.00;;;;;;5122255;28;20155;-68
2021/03/20 13:20:48;;;;;;;9.18;8.38;;;5.80;36.40;;;;;;5129082;28;20035;-67
2021/03/20 13:23:20;;;;;;;9.18;8.27;;;5.80;35.80;;;;;;5122119;28;20456;-67
2021/03/20 13:25:51;;;;;;;9.10;8.30;;;5.80;36.70;;;;;;5123978;28;20094;-67
2021/03/20 13:28:23;;;;;;;9.25;8.27;;;5.80;34.90;;;;;;5123888;28;20041;-67
2021/03/20 13:30:54;;;;;;;9.82;8.82;;;5.90;36.00;;;;;;5123892;28;20063;-68
2021/03/20 13:33:26;;;;;;;9.90;8.98;;;6.10;36.20;;;;;;5126950;28;20524;-68
2021/03/20 13:35:58;;;;;;;9.85;8.95;;;6.40;35.20;;;;;;5129377;28;20050;-68
2021/03/20 13:38:33;;;;;;;9.60;8.70;;;6.50;34.30;;;;;;5128677;28;20039;-66
2021/03/20 13:41:05;;;;;;;10.18;9.18;;;6.70;34.50;;;;;;5128918;28;20047;-67
2021/03/20 13:43:37;;;;;;;9.77;8.88;;;6.60;35.20;;;;;;5131804;28;20798;-68
2021/03/20 13:46:08;;;;;;;9.93;8.90;;;6.40;35.30;;;;;;5125235;28;20075;-68
2021/03/20 13:48:40;;;;;;;9.32;8.43;;;6.20;34.80;;;;;;5125446;28;20101;-67
2021/03/20 13:51:12;;;;;;;9.93;9.02;;;6.10;34.30;;;;;;5126382;28;21083;-69
2021/03/20 13:53:45;;;;;;;9.55;8.55;;;6.10;35.50;;;;;;5127827;28;20047;-66